createdAt,value
2023-04-04T00:00:19.026Z,2.56
2023-04-04T00:00:51.534Z,2.56
2023-04-04T00:01:24.498Z,2.50
2023-04-04T00:01:57.368Z,2.50
2023-04-04T00:02:29.459Z,2.50
2023-04-04T00:03:02.960Z,2.44
2023-04-04T00:03:35.206Z,2.50
2023-04-04T00:04:07.606Z,2.50
2023-04-04T00:04:40.687Z,2.50
2023-04-04T00:05:13.080Z,2.50
2023-04-04T00:05:45.411Z,2.50
2023-04-04T00:06:21.042Z,2.44
2023-04-04T00:06:54.534Z,2.44
2023-04-04T00:07:26.644Z,2.44
2023-04-04T00:07:59.669Z,2.44
2023-04-04T00:08:31.674Z,2.44
2023-04-04T00:09:03.677Z,2.38
2023-04-04T00:09:36.993Z,2.38
2023-04-04T00:10:09.614Z,2.38
2023-04-04T00:10:42.078Z,2.38
2023-04-04T00:11:15.457Z,2.38
2023-04-04T00:11:47.574Z,2.31
2023-04-04T00:12:19.630Z,2.31
2023-04-04T00:12:52.916Z,2.31
2023-04-04T00:13:26.406Z,2.31
2023-04-04T00:13:59.014Z,2.38
2023-04-04T00:14:32.183Z,2.38
2023-04-04T00:15:05.058Z,2.38
2023-04-04T00:15:37.163Z,2.38
2023-04-04T00:16:10.321Z,2.38
2023-04-04T00:16:42.417Z,2.38
2023-04-04T00:17:14.393Z,2.44
2023-04-04T00:17:47.365Z,2.44
2023-04-04T00:18:19.360Z,2.44
2023-04-04T00:18:58.770Z,2.44
2023-04-04T00:19:31.777Z,2.38
2023-04-04T00:20:04.403Z,2.38
2023-04-04T00:20:36.478Z,2.38
2023-04-04T00:21:09.478Z,2.31
2023-04-04T00:21:41.404Z,2.31
2023-04-04T00:22:14.779Z,2.25
2023-04-04T00:22:47.703Z,2.25
2023-04-04T00:23:20.077Z,2.19
2023-04-04T00:23:54.553Z,2.19
2023-04-04T00:24:26.714Z,2.19
2023-04-04T00:24:59.119Z,2.13
2023-04-04T00:25:32.211Z,2.13
2023-04-04T00:26:04.375Z,2.13
2023-04-04T00:26:36.339Z,2.06
2023-04-04T00:27:09.353Z,2.06
2023-04-04T00:27:41.309Z,2.00
2023-04-04T00:28:13.213Z,2.00
2023-04-04T00:28:46.206Z,2.00
2023-04-04T00:29:18.229Z,2.00
2023-04-04T00:29:50.196Z,1.94
2023-04-04T00:30:23.132Z,1.94
2023-04-04T00:30:55.251Z,1.94
2023-04-04T00:31:27.442Z,1.94
2023-04-04T00:32:00.534Z,1.88
2023-04-04T00:32:32.834Z,1.94
2023-04-04T00:33:06.476Z,1.94
2023-04-04T00:33:40.077Z,1.88
2023-04-04T00:34:12.264Z,1.94
2023-04-04T00:34:44.170Z,1.88
2023-04-04T00:35:18.856Z,1.94
2023-04-04T00:35:51.204Z,1.94
2023-04-04T00:36:24.479Z,1.94
2023-04-04T00:36:56.650Z,1.94
2023-04-04T00:37:30.050Z,1.94
2023-04-04T00:38:02.969Z,1.94
2023-04-04T00:38:35.028Z,1.88
2023-04-04T00:39:07.220Z,1.88
2023-04-04T00:39:40.204Z,1.88
2023-04-04T00:40:12.968Z,1.88
2023-04-04T00:40:47.915Z,1.88
2023-04-04T00:41:21.377Z,1.81
2023-04-04T00:41:53.534Z,1.81
2023-04-04T00:42:25.621Z,1.81
2023-04-04T00:42:59.649Z,1.81
2023-04-04T00:43:32.598Z,1.75
2023-04-04T00:44:04.859Z,1.75
2023-04-04T00:44:36.945Z,1.75
2023-04-04T00:45:10.947Z,1.75
2023-04-04T00:45:43.503Z,1.75
2023-04-04T00:46:18.909Z,1.75
2023-04-04T00:46:51.984Z,1.75
2023-04-04T00:47:26.010Z,1.75
2023-04-04T00:48:00.262Z,1.75
2023-04-04T00:48:33.220Z,1.75
2023-04-04T00:49:05.183Z,1.69
2023-04-04T00:49:38.122Z,1.69
2023-04-04T00:50:10.702Z,1.69
2023-04-04T00:50:42.729Z,1.69
2023-04-04T00:51:15.979Z,1.63
2023-04-04T00:51:47.887Z,1.63
2023-04-04T00:52:19.904Z,1.63
2023-04-04T00:52:53.390Z,1.63
2023-04-04T00:53:26.445Z,1.56
2023-04-04T00:53:59.416Z,1.56
2023-04-04T00:54:31.938Z,1.56
2023-04-04T00:55:06.647Z,1.56
2023-04-04T00:55:39.444Z,1.56
2023-04-04T00:56:11.489Z,1.56
2023-04-04T00:56:44.620Z,1.63
2023-04-04T00:57:17.613Z,1.63
2023-04-04T00:57:50.032Z,1.63
2023-04-04T00:58:22.980Z,1.69
2023-04-04T00:58:55.775Z,1.69
2023-04-04T00:59:29.232Z,1.75
2023-04-04T01:00:05.329Z,1.75
2023-04-04T01:00:37.917Z,1.75
2023-04-04T01:01:11.002Z,1.75
2023-04-04T01:01:43.971Z,1.75
2023-04-04T01:02:16.325Z,1.75
2023-04-04T01:02:48.387Z,1.69
2023-04-04T01:03:21.705Z,1.69
2023-04-04T01:03:54.071Z,1.69
2023-04-04T01:04:27.305Z,1.63
2023-04-04T01:05:00.254Z,1.63
2023-04-04T01:05:33.572Z,1.63
2023-04-04T01:06:06.653Z,1.56
2023-04-04T01:06:38.775Z,1.56
2023-04-04T01:07:12.469Z,1.56
2023-04-04T01:07:44.595Z,1.56
2023-04-04T01:08:23.131Z,1.50
2023-04-04T01:08:57.980Z,1.50
2023-04-04T01:09:30.560Z,1.44
2023-04-04T01:10:04.139Z,1.44
2023-04-04T01:10:37.115Z,1.44
2023-04-04T01:11:10.047Z,1.44
2023-04-04T01:11:42.525Z,1.38
2023-04-04T01:12:15.746Z,1.38
2023-04-04T01:12:48.114Z,1.38
2023-04-04T01:13:20.910Z,1.38
2023-04-04T01:13:54.210Z,1.38
2023-04-04T01:14:26.362Z,1.31
2023-04-04T01:14:58.988Z,1.31
2023-04-04T01:15:31.149Z,1.31
2023-04-04T01:16:04.098Z,1.31
2023-04-04T01:16:36.397Z,1.31
2023-04-04T01:17:09.118Z,1.31
2023-04-04T01:17:44.692Z,1.31
2023-04-04T01:18:20.155Z,1.38
2023-04-04T01:18:54.064Z,1.38
2023-04-04T01:19:36.117Z,1.38
2023-04-04T01:20:15.939Z,1.38
2023-04-04T01:20:59.625Z,1.38
2023-04-04T01:21:31.798Z,1.38
2023-04-04T01:22:05.427Z,1.38
2023-04-04T01:22:40.042Z,1.38
2023-04-04T01:23:13.541Z,1.38
2023-04-04T01:23:55.168Z,1.38
2023-04-04T01:24:34.816Z,1.31
2023-04-04T01:25:09.561Z,1.31
2023-04-04T01:25:46.421Z,1.38
2023-04-04T01:26:23.641Z,1.38
2023-04-04T01:26:56.794Z,1.44
2023-04-04T01:27:28.841Z,1.44
2023-04-04T01:28:10.139Z,1.50
2023-04-04T01:28:42.564Z,1.50
2023-04-04T01:29:17.578Z,1.56
2023-04-04T01:29:51.060Z,1.56
2023-04-04T01:30:25.157Z,1.56
2023-04-04T01:31:00.472Z,1.56
2023-04-04T01:31:38.095Z,1.56
2023-04-04T01:32:15.655Z,1.56
2023-04-04T01:32:52.296Z,1.56
2023-04-04T01:33:29.643Z,1.56
2023-04-04T01:34:08.994Z,1.56
2023-04-04T01:34:47.051Z,1.56
2023-04-04T01:35:27.322Z,1.56
2023-04-04T01:36:06.758Z,1.50
2023-04-04T01:36:47.584Z,1.50
2023-04-04T01:37:27.166Z,1.50
2023-04-04T01:38:13.206Z,1.50
2023-04-04T01:38:55.282Z,1.50
2023-04-04T01:39:34.098Z,1.50
2023-04-04T01:40:12.243Z,1.44
2023-04-04T01:40:50.778Z,1.44
2023-04-04T01:41:25.350Z,1.44
2023-04-04T01:42:03.442Z,1.50
2023-04-04T01:42:37.768Z,1.50
2023-04-04T01:43:09.897Z,1.50
2023-04-04T01:43:45.548Z,1.50
2023-04-04T01:44:19.225Z,1.50
2023-04-04T01:44:55.425Z,1.44
2023-04-04T01:45:29.671Z,1.44
2023-04-04T01:46:04.480Z,1.44
2023-04-04T01:46:37.081Z,1.44
2023-04-04T01:47:09.428Z,1.44
2023-04-04T01:47:43.303Z,1.44
2023-04-04T01:48:20.818Z,1.44
2023-04-04T01:48:56.546Z,1.44
2023-04-04T01:49:33.690Z,1.44
2023-04-04T01:50:08.638Z,1.38
2023-04-04T01:50:41.458Z,1.38
2023-04-04T01:51:15.598Z,1.38
2023-04-04T01:51:49.019Z,1.31
2023-04-04T01:52:21.631Z,1.31
2023-04-04T01:52:54.091Z,1.31
2023-04-04T01:53:27.294Z,1.25
2023-04-04T01:53:59.362Z,1.25
2023-04-04T01:54:33.157Z,1.25
2023-04-04T01:55:07.059Z,1.19
2023-04-04T01:55:39.149Z,1.19
2023-04-04T01:56:13.200Z,1.19
2023-04-04T01:56:46.613Z,1.19
2023-04-04T01:57:18.833Z,1.13
2023-04-04T01:57:51.355Z,1.19
2023-04-04T01:58:24.457Z,1.19
2023-04-04T01:58:56.826Z,1.19
2023-04-04T01:59:29.623Z,1.19
2023-04-04T02:00:02.393Z,1.19
2023-04-04T02:00:36.129Z,1.19
2023-04-04T02:01:09.758Z,1.19
2023-04-04T02:01:41.981Z,1.13
2023-04-04T02:02:14.901Z,1.13
2023-04-04T02:02:46.924Z,1.13
2023-04-04T02:03:19.099Z,1.13
2023-04-04T02:03:52.851Z,1.13
2023-04-04T02:04:24.899Z,1.13
2023-04-04T02:04:57.028Z,1.13
2023-04-04T02:05:29.958Z,1.13
2023-04-04T02:06:02.042Z,1.13
2023-04-04T02:06:34.088Z,1.13
2023-04-04T02:07:08.218Z,1.13
2023-04-04T02:07:40.520Z,1.06
2023-04-04T02:08:22.847Z,1.06
2023-04-04T02:09:00.964Z,1.06
2023-04-04T02:09:33.588Z,1.06
2023-04-04T02:10:08.026Z,1.06
2023-04-04T02:10:40.173Z,1.06
2023-04-04T02:11:14.659Z,1.06
2023-04-04T02:11:46.671Z,1.00
2023-04-04T02:12:18.696Z,1.00
2023-04-04T02:12:53.950Z,1.00
2023-04-04T02:13:27.983Z,0.94
2023-04-04T02:14:02.603Z,0.94
2023-04-04T02:14:35.825Z,0.94
2023-04-04T02:15:08.788Z,0.94
2023-04-04T02:15:40.887Z,0.88
2023-04-04T02:16:14.009Z,0.88
2023-04-04T02:16:46.200Z,0.88
2023-04-04T02:17:18.278Z,0.88
2023-04-04T02:17:51.593Z,0.81
2023-04-04T02:18:24.583Z,0.81
2023-04-04T02:18:56.977Z,0.81
2023-04-04T02:19:29.960Z,0.81
2023-04-04T02:20:02.338Z,0.81
2023-04-04T02:20:34.630Z,0.81
2023-04-04T02:21:07.747Z,0.81
2023-04-04T02:21:39.736Z,0.75
2023-04-04T02:22:11.689Z,0.75
2023-04-04T02:22:44.657Z,0.75
2023-04-04T02:23:16.722Z,0.75
2023-04-04T02:23:48.760Z,0.75
2023-04-04T02:24:21.696Z,0.75
2023-04-04T02:24:53.886Z,0.75
2023-04-04T02:25:26.337Z,0.69
2023-04-04T02:25:59.314Z,0.69
2023-04-04T02:26:32.576Z,0.69
2023-04-04T02:27:04.728Z,0.69
2023-04-04T02:27:39.113Z,0.63
2023-04-04T02:28:11.548Z,0.63
2023-04-04T02:28:43.555Z,0.63
2023-04-04T02:29:16.814Z,0.63
2023-04-04T02:29:49.156Z,0.56
2023-04-04T02:30:22.627Z,0.56
2023-04-04T02:30:57.494Z,0.56
2023-04-04T02:31:36.053Z,0.56
2023-04-04T02:32:08.150Z,0.56
2023-04-04T02:32:41.390Z,0.56
2023-04-04T02:33:13.475Z,0.56
2023-04-04T02:33:45.510Z,0.50
2023-04-04T02:34:19.090Z,0.50
2023-04-04T02:34:52.716Z,0.50
2023-04-04T02:35:25.215Z,0.50
2023-04-04T02:35:58.453Z,0.50
2023-04-04T02:36:30.529Z,0.50
2023-04-04T02:37:03.888Z,0.50
2023-04-04T02:37:36.787Z,0.44
2023-04-04T02:38:12.334Z,0.44
2023-04-04T02:38:48.806Z,0.44
2023-04-04T02:39:22.155Z,0.44
2023-04-04T02:39:54.898Z,0.44
2023-04-04T02:40:27.343Z,0.44
2023-04-04T02:41:00.340Z,0.38
2023-04-04T02:41:34.174Z,0.38
2023-04-04T02:42:07.370Z,0.38
2023-04-04T02:42:43.676Z,0.38
2023-04-04T02:43:15.713Z,0.38
2023-04-04T02:43:48.619Z,0.38
2023-04-04T02:44:22.287Z,0.38
2023-04-04T02:45:01.725Z,0.31
2023-04-04T02:45:36.568Z,0.31
2023-04-04T02:46:21.609Z,0.31
2023-04-04T02:46:58.371Z,0.31
2023-04-04T02:47:34.810Z,0.31
2023-04-04T02:48:08.307Z,0.31
2023-04-04T02:48:46.441Z,0.31
2023-04-04T02:49:18.974Z,0.31
2023-04-04T02:49:54.625Z,0.31
2023-04-04T02:50:27.219Z,0.25
2023-04-04T02:51:04.084Z,0.25
2023-04-04T02:51:38.419Z,0.25
2023-04-04T02:52:10.438Z,0.25
2023-04-04T02:52:46.353Z,0.31
2023-04-04T02:53:19.731Z,0.25
2023-04-04T02:53:55.198Z,0.31
2023-04-04T02:54:35.276Z,0.25
2023-04-04T02:55:09.634Z,0.25
2023-04-04T02:55:46.241Z,0.25
2023-04-04T02:56:18.591Z,0.25
2023-04-04T02:56:52.581Z,0.25
2023-04-04T02:57:25.605Z,0.25
2023-04-04T02:57:58.190Z,0.25
2023-04-04T02:58:31.751Z,0.25
2023-04-04T02:59:07.879Z,0.25
2023-04-04T02:59:40.945Z,0.25
2023-04-04T03:00:13.620Z,0.25
2023-04-04T03:00:47.298Z,0.25
2023-04-04T03:01:21.101Z,0.25
2023-04-04T03:01:53.228Z,0.19
2023-04-04T03:02:25.821Z,0.19
2023-04-04T03:02:59.534Z,0.19
2023-04-04T03:03:37.942Z,0.19
2023-04-04T03:04:11.413Z,0.19
2023-04-04T03:04:44.401Z,0.19
2023-04-04T03:05:16.367Z,0.19
2023-04-04T03:05:49.804Z,0.25
2023-04-04T03:06:23.286Z,0.19
2023-04-04T03:06:55.371Z,0.19
2023-04-04T03:07:27.371Z,0.25
2023-04-04T03:08:00.192Z,0.25
2023-04-04T03:08:34.949Z,0.25
2023-04-04T03:09:07.119Z,0.25
2023-04-04T03:09:39.248Z,0.25
2023-04-04T03:10:12.570Z,0.25
2023-04-04T03:10:45.277Z,0.25
2023-04-04T03:11:18.336Z,0.25
2023-04-04T03:11:52.753Z,0.25
2023-04-04T03:12:24.761Z,0.31
2023-04-04T03:12:56.779Z,0.31
2023-04-04T03:13:30.414Z,0.31
2023-04-04T03:14:03.069Z,0.31
2023-04-04T03:14:39.386Z,0.31
2023-04-04T03:15:12.660Z,0.25
2023-04-04T03:15:47.356Z,0.31
2023-04-04T03:16:22.383Z,0.31
2023-04-04T03:16:58.331Z,0.31
2023-04-04T03:17:30.609Z,0.31
2023-04-04T03:18:03.114Z,0.31
2023-04-04T03:18:38.261Z,0.31
2023-04-04T03:19:11.147Z,0.31
2023-04-04T03:19:43.340Z,0.31
2023-04-04T03:20:17.300Z,0.31
2023-04-04T03:20:50.120Z,0.31
2023-04-04T03:21:22.444Z,0.31
2023-04-04T03:21:57.356Z,0.31
2023-04-04T03:22:31.087Z,0.31
2023-04-04T03:23:08.522Z,0.31
2023-04-04T03:23:40.539Z,0.31
2023-04-04T03:24:13.804Z,0.31
2023-04-04T03:24:47.065Z,0.31
2023-04-04T03:25:19.706Z,0.31
2023-04-04T03:25:52.767Z,0.31
2023-04-04T03:26:25.654Z,0.25
2023-04-04T03:27:02.036Z,0.25
2023-04-04T03:27:58.731Z,0.25
2023-04-04T03:28:39.026Z,0.25
2023-04-04T03:29:11.114Z,0.25
2023-04-04T03:29:44.278Z,0.19
2023-04-04T03:30:16.649Z,0.19
2023-04-04T03:30:48.744Z,0.19
2023-04-04T03:31:21.820Z,0.19
2023-04-04T03:31:54.096Z,0.19
2023-04-04T03:32:26.344Z,0.19
2023-04-04T03:32:59.323Z,0.19
2023-04-04T03:33:31.897Z,0.19
2023-04-04T03:34:04.731Z,0.19
2023-04-04T03:34:37.768Z,0.19
2023-04-04T03:35:13.057Z,0.25
2023-04-04T03:35:48.186Z,0.19
2023-04-04T03:36:22.652Z,0.19
2023-04-04T03:36:57.557Z,0.19
2023-04-04T03:37:30.777Z,0.19
2023-04-04T03:38:03.961Z,0.19
2023-04-04T03:38:37.365Z,0.19
2023-04-04T03:39:09.350Z,0.19
2023-04-04T03:39:42.275Z,0.13
2023-04-04T03:40:14.652Z,0.13
2023-04-04T03:40:48.274Z,0.13
2023-04-04T03:41:21.444Z,0.13
2023-04-04T03:41:53.959Z,0.13
2023-04-04T03:42:28.042Z,0.13
2023-04-04T03:43:02.391Z,0.13
2023-04-04T03:43:34.547Z,0.13
2023-04-04T03:44:07.003Z,0.06
2023-04-04T03:44:41.337Z,0.06
2023-04-04T03:45:17.641Z,0.06
2023-04-04T03:45:49.779Z,0.00
2023-04-04T03:46:22.780Z,0.00
2023-04-04T03:46:54.929Z,0.00
2023-04-04T03:47:28.269Z,0.00
2023-04-04T03:48:02.086Z,-0.06
2023-04-04T03:48:38.633Z,-0.06
2023-04-04T03:49:14.790Z,-0.06
2023-04-04T03:49:47.107Z,-0.13
2023-04-04T03:50:19.429Z,-0.13
2023-04-04T03:50:58.343Z,-0.13
2023-04-04T03:51:30.516Z,-0.13
2023-04-04T03:52:02.602Z,-0.13
2023-04-04T03:52:38.973Z,-0.13
2023-04-04T03:53:12.311Z,-0.19
2023-04-04T03:53:44.294Z,-0.19
2023-04-04T03:54:17.600Z,-0.19
2023-04-04T03:54:49.567Z,-0.19
2023-04-04T03:55:21.609Z,-0.19
2023-04-04T03:55:56.897Z,-0.25
2023-04-04T03:56:30.225Z,-0.25
2023-04-04T03:57:04.780Z,-0.25
2023-04-04T03:57:38.211Z,-0.25
2023-04-04T03:58:14.739Z,-0.25
2023-04-04T03:58:47.773Z,-0.25
2023-04-04T03:59:23.912Z,-0.25
2023-04-04T03:59:55.959Z,-0.31
2023-04-04T04:00:29.394Z,-0.31
2023-04-04T04:01:01.740Z,-0.31
2023-04-04T04:01:36.045Z,-0.31
2023-04-04T04:02:09.089Z,-0.31
2023-04-04T04:02:41.280Z,-0.38
2023-04-04T04:03:16.402Z,-0.38
2023-04-04T04:03:50.440Z,-0.38
2023-04-04T04:04:23.316Z,-0.38
2023-04-04T04:04:58.330Z,-0.38
2023-04-04T04:05:31.268Z,-0.44
2023-04-04T04:06:03.327Z,-0.44
2023-04-04T04:06:37.986Z,-0.44
2023-04-04T04:07:12.181Z,-0.44
2023-04-04T04:07:47.151Z,-0.44
2023-04-04T04:08:19.176Z,-0.44
2023-04-04T04:08:52.092Z,-0.44
2023-04-04T04:09:24.068Z,-0.44
2023-04-04T04:09:56.332Z,-0.44
2023-04-04T04:10:29.288Z,-0.44
2023-04-04T04:11:04.832Z,-0.44
2023-04-04T04:11:39.172Z,-0.44
2023-04-04T04:12:11.132Z,-0.44
2023-04-04T04:12:44.543Z,-0.44
2023-04-04T04:13:17.811Z,-0.44
2023-04-04T04:13:49.842Z,-0.44
2023-04-04T04:14:22.229Z,-0.44
2023-04-04T04:14:55.212Z,-0.44
2023-04-04T04:15:27.494Z,-0.44
2023-04-04T04:16:01.777Z,-0.44
2023-04-04T04:16:35.221Z,-0.44
2023-04-04T04:17:07.533Z,-0.44
2023-04-04T04:17:40.203Z,-0.44
2023-04-04T04:18:14.142Z,-0.44
2023-04-04T04:18:46.164Z,-0.44
2023-04-04T04:19:24.619Z,-0.44
2023-04-04T04:19:57.043Z,-0.44
2023-04-04T04:20:30.208Z,-0.50
2023-04-04T04:21:04.154Z,-0.50
2023-04-04T04:21:38.874Z,-0.50
2023-04-04T04:22:18.125Z,-0.50
2023-04-04T04:22:53.360Z,-0.50
2023-04-04T04:23:26.331Z,-0.50
2023-04-04T04:23:58.316Z,-0.50
2023-04-04T04:24:31.345Z,-0.50
2023-04-04T04:25:05.618Z,-0.50
2023-04-04T04:25:38.100Z,-0.50
2023-04-04T04:26:19.490Z,-0.50
2023-04-04T04:26:52.033Z,-0.50
2023-04-04T04:27:24.013Z,-0.44
2023-04-04T04:27:58.545Z,-0.44
2023-04-04T04:28:34.034Z,-0.44
2023-04-04T04:29:15.630Z,-0.44
2023-04-04T04:29:48.622Z,-0.44
2023-04-04T04:30:20.925Z,-0.50
2023-04-04T04:30:53.701Z,-0.50
2023-04-04T04:31:29.382Z,-0.50
2023-04-04T04:32:02.518Z,-0.50
2023-04-04T04:32:38.996Z,-0.50
2023-04-04T04:33:11.640Z,-0.50
2023-04-04T04:33:53.621Z,-0.50
2023-04-04T04:34:29.924Z,-0.50
2023-04-04T04:35:05.582Z,-0.50
2023-04-04T04:35:40.965Z,-0.50
2023-04-04T04:36:14.085Z,-0.50
2023-04-04T04:37:23.680Z,-0.56
2023-04-04T04:37:58.765Z,-0.56
2023-04-04T04:38:31.617Z,-0.56
2023-04-04T04:39:04.926Z,-0.56
2023-04-04T04:39:41.268Z,-0.56
2023-04-04T04:40:32.619Z,-0.56
2023-04-04T04:41:10.357Z,-0.56
2023-04-04T04:41:50.736Z,-0.56
2023-04-04T04:42:23.645Z,-0.56
2023-04-04T04:43:02.491Z,-0.56
2023-04-04T04:43:36.933Z,-0.56
2023-04-04T04:44:09.012Z,-0.56
2023-04-04T04:44:41.006Z,-0.56
2023-04-04T04:45:14.141Z,-0.56
2023-04-04T04:45:50.723Z,-0.56
2023-04-04T04:46:23.833Z,-0.56
2023-04-04T04:46:55.948Z,-0.56
2023-04-04T04:47:30.424Z,-0.56
2023-04-04T04:48:03.595Z,-0.56
2023-04-04T04:48:36.919Z,-0.56
2023-04-04T04:49:09.512Z,-0.63
2023-04-04T04:49:44.628Z,-0.63
2023-04-04T04:50:17.861Z,-0.56
2023-04-04T04:50:53.373Z,-0.56
2023-04-04T04:51:37.458Z,-0.56
2023-04-04T04:52:09.765Z,-0.56
2023-04-04T04:52:43.323Z,-0.56
2023-04-04T04:53:16.700Z,-0.56
2023-04-04T04:53:50.720Z,-0.56
2023-04-04T04:54:22.692Z,-0.56
2023-04-04T04:55:00.327Z,-0.56
2023-04-04T04:55:33.159Z,-0.56
2023-04-04T04:56:10.665Z,-0.56
2023-04-04T04:56:47.354Z,-0.56
2023-04-04T04:57:20.247Z,-0.56
2023-04-04T04:57:53.376Z,-0.56
2023-04-04T04:58:30.673Z,-0.56
2023-04-04T04:59:07.191Z,-0.56
2023-04-04T04:59:41.211Z,-0.56
2023-04-04T05:00:17.345Z,-0.63
2023-04-04T05:00:56.570Z,-0.63
2023-04-04T05:01:29.092Z,-0.63
2023-04-04T05:02:02.523Z,-0.63
2023-04-04T05:02:36.936Z,-0.63
2023-04-04T05:03:09.915Z,-0.63
2023-04-04T05:03:47.435Z,-0.69
2023-04-04T05:04:24.018Z,-0.69
2023-04-04T05:05:06.849Z,-0.69
2023-04-04T05:05:40.252Z,-0.69
2023-04-04T05:06:16.809Z,-0.69
2023-04-04T05:06:50.847Z,-0.75
2023-04-04T05:07:23.297Z,-0.69
2023-04-04T05:07:55.702Z,-0.69
2023-04-04T05:08:28.756Z,-0.69
2023-04-04T05:09:08.827Z,-0.69
2023-04-04T05:09:44.036Z,-0.69
2023-04-04T05:10:16.930Z,-0.69
2023-04-04T05:10:50.555Z,-0.69
2023-04-04T05:11:24.551Z,-0.69
2023-04-04T05:11:57.228Z,-0.75
2023-04-04T05:12:43.391Z,-0.75
2023-04-04T05:13:18.564Z,-0.75
2023-04-04T05:13:53.358Z,-0.69
2023-04-04T05:14:26.118Z,-0.75
2023-04-04T05:15:02.879Z,-0.75
2023-04-04T05:15:34.979Z,-0.69
2023-04-04T05:16:07.971Z,-0.69
2023-04-04T05:16:42.860Z,-0.69
2023-04-04T05:17:14.955Z,-0.69
2023-04-04T05:17:47.873Z,-0.69
2023-04-04T05:18:20.941Z,-0.69
2023-04-04T05:18:53.012Z,-0.69
2023-04-04T05:19:25.113Z,-0.69
2023-04-04T05:20:01.784Z,-0.69
2023-04-04T05:20:33.845Z,-0.63
2023-04-04T05:21:07.250Z,-0.63
2023-04-04T05:21:40.762Z,-0.63
2023-04-04T05:22:16.119Z,-0.63
2023-04-04T05:22:53.697Z,-0.56
2023-04-04T05:23:35.690Z,-0.56
2023-04-04T05:24:08.364Z,-0.56
2023-04-04T05:24:47.388Z,-0.63
2023-04-04T05:25:22.768Z,-0.56
2023-04-04T05:25:54.826Z,-0.56
2023-04-04T05:26:29.620Z,-0.63
2023-04-04T05:27:01.716Z,-0.63
2023-04-04T05:27:39.519Z,-0.63
2023-04-04T05:28:12.906Z,-0.63
2023-04-04T05:28:51.234Z,-0.63
2023-04-04T05:29:26.752Z,-0.63
2023-04-04T05:29:58.883Z,-0.63
2023-04-04T05:30:40.246Z,-0.56
2023-04-04T05:31:23.558Z,-0.63
2023-04-04T05:31:57.526Z,-0.63
2023-04-04T05:32:29.770Z,-0.63
2023-04-04T05:33:12.052Z,-0.56
2023-04-04T05:33:48.376Z,-0.56
2023-04-04T05:34:34.139Z,-0.56
2023-04-04T05:35:11.261Z,-0.56
2023-04-04T05:35:43.932Z,-0.56
2023-04-04T05:36:16.182Z,-0.56
2023-04-04T05:36:57.621Z,-0.50
2023-04-04T05:37:30.029Z,-0.50
2023-04-04T05:38:02.165Z,-0.50
2023-04-04T05:38:36.521Z,-0.50
2023-04-04T05:39:10.073Z,-0.50
2023-04-04T05:39:49.218Z,-0.44
2023-04-04T05:40:23.060Z,-0.44
2023-04-04T05:41:01.118Z,-0.44
2023-04-04T05:41:33.573Z,-0.38
2023-04-04T05:42:14.812Z,-0.38
2023-04-04T05:42:55.973Z,-0.38
2023-04-04T05:43:30.070Z,-0.31
2023-04-04T05:44:08.057Z,-0.31
2023-04-04T05:44:41.494Z,-0.31
2023-04-04T05:45:14.439Z,-0.31
2023-04-04T05:45:47.484Z,-0.31
2023-04-04T05:46:19.614Z,-0.25
2023-04-04T05:46:55.417Z,-0.25
2023-04-04T05:47:29.008Z,-0.25
2023-04-04T05:48:01.130Z,-0.25
2023-04-04T05:48:37.453Z,-0.25
2023-04-04T05:49:10.458Z,-0.19
2023-04-04T05:49:46.535Z,-0.19
2023-04-04T05:50:19.680Z,-0.19
2023-04-04T05:50:53.819Z,-0.19
2023-04-04T05:51:36.611Z,-0.19
2023-04-04T05:52:16.238Z,-0.13
2023-04-04T05:52:48.540Z,-0.06
2023-04-04T05:53:22.628Z,-0.06
2023-04-04T05:53:57.643Z,-0.06
2023-04-04T05:54:34.835Z,-0.06
2023-04-04T05:55:12.115Z,0.00
2023-04-04T05:55:46.531Z,0.00
2023-04-04T05:56:18.614Z,0.06
2023-04-04T05:56:51.704Z,0.06
2023-04-04T05:57:50.304Z,0.06
2023-04-04T05:58:29.071Z,0.13
2023-04-04T05:59:03.845Z,0.13
2023-04-04T05:59:39.145Z,0.13
2023-04-04T06:00:17.679Z,0.19
2023-04-04T06:00:53.274Z,0.19
2023-04-04T06:01:25.641Z,0.19
2023-04-04T06:02:01.371Z,0.25
2023-04-04T06:02:34.445Z,0.25
2023-04-04T06:03:10.122Z,0.25
2023-04-04T06:03:42.306Z,0.31
2023-04-04T06:04:18.877Z,0.31
2023-04-04T06:04:52.643Z,0.31
2023-04-04T06:05:33.622Z,0.31
2023-04-04T06:06:10.029Z,0.38
2023-04-04T06:06:42.130Z,0.38
2023-04-04T06:07:14.592Z,0.38
2023-04-04T06:07:48.173Z,0.38
2023-04-04T06:08:20.245Z,0.44
2023-04-04T06:08:53.915Z,0.44
2023-04-04T06:09:27.495Z,0.44
2023-04-04T06:09:59.697Z,0.44
2023-04-04T06:10:31.702Z,0.50
2023-04-04T06:11:04.804Z,0.50
2023-04-04T06:11:36.889Z,0.56
2023-04-04T06:12:13.514Z,0.56
2023-04-04T06:12:46.484Z,0.56
2023-04-04T06:13:19.743Z,0.63
2023-04-04T06:13:56.464Z,0.63
2023-04-04T06:14:30.821Z,0.69
2023-04-04T06:15:04.840Z,0.69
2023-04-04T06:15:43.497Z,0.75
2023-04-04T06:16:15.943Z,0.75
2023-04-04T06:16:48.405Z,0.81
2023-04-04T06:17:21.983Z,0.81
2023-04-04T06:17:54.124Z,0.88
2023-04-04T06:18:27.884Z,0.94
2023-04-04T06:19:00.242Z,0.94
2023-04-04T06:19:32.361Z,1.00
2023-04-04T06:20:06.086Z,1.00
2023-04-04T06:20:39.347Z,1.06
2023-04-04T06:21:13.254Z,1.13
2023-04-04T06:21:45.589Z,1.13
2023-04-04T06:22:20.052Z,1.19
2023-04-04T06:22:54.946Z,1.25
2023-04-04T06:23:28.178Z,1.31
2023-04-04T06:24:00.193Z,1.38
2023-04-04T06:24:35.542Z,1.44
2023-04-04T06:25:10.507Z,1.50
2023-04-04T06:25:47.452Z,1.56
2023-04-04T06:26:21.940Z,1.63
2023-04-04T06:26:54.766Z,1.69
2023-04-04T06:27:30.767Z,1.75
2023-04-04T06:28:05.522Z,1.81
2023-04-04T06:28:39.129Z,1.88
2023-04-04T06:29:12.420Z,1.94
2023-04-04T06:29:47.838Z,2.00
2023-04-04T06:30:23.519Z,2.06
2023-04-04T06:30:59.242Z,2.13
2023-04-04T06:31:34.561Z,2.13
2023-04-04T06:32:22.636Z,2.19
2023-04-04T06:32:54.870Z,2.25
2023-04-04T06:33:30.633Z,2.25
2023-04-04T06:34:03.909Z,2.31
2023-04-04T06:34:40.780Z,2.38
2023-04-04T06:35:14.970Z,2.38
2023-04-04T06:35:51.492Z,2.44
2023-04-04T06:36:25.522Z,2.44
2023-04-04T06:36:58.542Z,2.44
2023-04-04T06:37:35.726Z,2.50
2023-04-04T06:38:15.685Z,2.50
2023-04-04T06:38:47.934Z,2.50
2023-04-04T06:39:24.194Z,2.56
2023-04-04T06:39:58.233Z,2.56
2023-04-04T06:40:33.711Z,2.56
2023-04-04T06:41:05.940Z,2.63
2023-04-04T06:41:38.910Z,2.63
2023-04-04T06:42:12.425Z,2.63
2023-04-04T06:42:55.124Z,2.69
2023-04-04T06:43:31.019Z,2.69
2023-04-04T06:44:04.296Z,2.75
2023-04-04T06:44:36.312Z,2.75
2023-04-04T06:45:09.990Z,2.75
2023-04-04T06:45:41.979Z,2.75
2023-04-04T06:46:16.381Z,2.81
2023-04-04T06:46:48.500Z,2.81
2023-04-04T06:47:22.511Z,2.81
2023-04-04T06:47:54.843Z,2.81
2023-04-04T06:48:27.994Z,2.81
2023-04-04T06:49:01.020Z,2.81
2023-04-04T06:49:35.097Z,2.88
2023-04-04T06:50:08.326Z,2.88
2023-04-04T06:50:41.657Z,2.88
2023-04-04T06:51:17.628Z,2.88
2023-04-04T06:51:52.699Z,2.94
2023-04-04T06:52:25.633Z,2.94
2023-04-04T06:52:57.749Z,2.94
2023-04-04T06:53:31.219Z,2.94
2023-04-04T06:54:03.309Z,2.94
2023-04-04T06:54:35.869Z,3.00
2023-04-04T06:55:09.516Z,3.00
2023-04-04T06:55:41.726Z,3.00
2023-04-04T06:56:15.020Z,3.06
2023-04-04T06:56:47.452Z,3.06
2023-04-04T06:57:20.074Z,3.06
2023-04-04T06:57:53.240Z,3.06
2023-04-04T06:58:25.287Z,3.13
2023-04-04T06:58:58.318Z,3.13
2023-04-04T06:59:30.410Z,3.19
2023-04-04T07:00:04.693Z,3.19
2023-04-04T07:00:36.934Z,3.25
2023-04-04T07:01:09.378Z,3.31
2023-04-04T07:01:43.695Z,3.38
2023-04-04T07:02:15.778Z,3.38
2023-04-04T07:02:47.907Z,3.44
2023-04-04T07:03:21.266Z,3.50
2023-04-04T07:03:54.041Z,3.50
2023-04-04T07:04:27.144Z,3.56
2023-04-04T07:04:59.180Z,3.56
2023-04-04T07:05:32.260Z,3.63
2023-04-04T07:06:05.601Z,3.63
2023-04-04T07:06:37.586Z,3.69
2023-04-04T07:07:12.043Z,3.75
2023-04-04T07:07:44.080Z,3.81
2023-04-04T07:08:17.075Z,3.88
2023-04-04T07:08:49.027Z,3.94
2023-04-04T07:09:28.805Z,3.94
2023-04-04T07:10:02.825Z,4.00
2023-04-04T07:10:34.948Z,4.06
2023-04-04T07:11:08.115Z,4.19
2023-04-04T07:11:41.163Z,4.19
2023-04-04T07:12:13.146Z,4.31
2023-04-04T07:12:46.085Z,4.31
2023-04-04T07:13:18.123Z,4.38
2023-04-04T07:13:51.123Z,4.44
2023-04-04T07:14:25.376Z,4.50
2023-04-04T07:14:59.019Z,4.56
2023-04-04T07:15:31.106Z,4.63
2023-04-04T07:16:03.432Z,4.63
2023-04-04T07:16:37.039Z,4.69
2023-04-04T07:17:21.304Z,4.69
2023-04-04T07:17:57.968Z,4.69
2023-04-04T07:18:30.381Z,4.75
2023-04-04T07:19:03.507Z,4.69
2023-04-04T07:19:35.713Z,4.69
2023-04-04T07:20:08.626Z,4.69
2023-04-04T07:20:41.633Z,4.69
2023-04-04T07:21:13.717Z,4.69
2023-04-04T07:21:46.676Z,4.69
2023-04-04T07:22:19.025Z,4.69
2023-04-04T07:22:51.165Z,4.69
2023-04-04T07:23:24.086Z,4.69
2023-04-04T07:23:56.037Z,4.75
2023-04-04T07:24:28.089Z,4.75
2023-04-04T07:25:01.079Z,4.75
2023-04-04T07:25:33.090Z,4.75
2023-04-04T07:26:06.368Z,4.75
2023-04-04T07:26:38.344Z,4.75
2023-04-04T07:27:11.258Z,4.75
2023-04-04T07:27:44.218Z,4.75
2023-04-04T07:28:16.632Z,4.69
2023-04-04T07:28:49.571Z,4.69
2023-04-04T07:29:21.988Z,4.69
2023-04-04T07:29:54.306Z,4.69
2023-04-04T07:30:30.056Z,4.69
2023-04-04T07:31:03.477Z,4.69